sensor_id;sensor_type;location;lat;lon;timestamp;pressure;altitude;pressure_sealevel;temperature;humidity
12360;BME280;6244;51.460;7.090;2023-05-07T00:04:15;100652.59;;;16.66;68.52
12360;BME280;6244;51.460;7.090;2023-05-07T00:09:11;100656.88;;;16.56;68.88
12360;BME280;6244;51.460;7.090;2023-05-07T00:14:09;100657.97;;;16.53;69.57
12360;BME280;6244;51.460;7.090;2023-05-07T00:19:06;100656.78;;;16.57;69.33
12360;BME280;6244;51.460;7.090;2023-05-07T00:24:03;100655.94;;;16.57;69.48
12360;BME280;6244;51.460;7.090;2023-05-07T00:29:00;100658.34;;;16.60;69.50
12360;BME280;6244;51.460;7.090;2023-05-07T00:33:57;100646.78;;;16.61;69.69
12360;BME280;6244;51.460;7.090;2023-05-07T00:38:54;100648.34;;;16.52;69.56
12360;BME280;6244;51.460;7.090;2023-05-07T00:43:51;100646.78;;;16.50;69.98
12360;BME280;6244;51.460;7.090;2023-05-07T00:48:48;100629.66;;;16.42;69.83
12360;BME280;6244;51.460;7.090;2023-05-07T00:53:47;100635.16;;;16.28;70.11
12360;BME280;6244;51.460;7.090;2023-05-07T00:58:44;100636.06;;;16.16;70.29
12360;BME280;6244;51.460;7.090;2023-05-07T01:03:40;100634.75;;;16.22;70.53
12360;BME280;6244;51.460;7.090;2023-05-07T01:08:37;100630.41;;;16.21;70.59
12360;BME280;6244;51.460;7.090;2023-05-07T01:13:36;100634.41;;;16.26;70.59
12360;BME280;6244;51.460;7.090;2023-05-07T01:18:34;100634.03;;;16.20;70.46
12360;BME280;6244;51.460;7.090;2023-05-07T01:23:33;100634.63;;;16.23;70.92
12360;BME280;6244;51.460;7.090;2023-05-07T01:28:30;100619.22;;;16.17;70.52
12360;BME280;6244;51.460;7.090;2023-05-07T01:33:29;100639.44;;;16.18;70.38
12360;BME280;6244;51.460;7.090;2023-05-07T01:38:28;100635.59;;;16.22;70.54
12360;BME280;6244;51.460;7.090;2023-05-07T01:43:26;100637.50;;;16.20;70.54
12360;BME280;6244;51.460;7.090;2023-05-07T01:48:24;100635.81;;;16.19;70.69
12360;BME280;6244;51.460;7.090;2023-05-07T01:53:20;100625.72;;;16.13;70.68
12360;BME280;6244;51.460;7.090;2023-05-07T01:58:17;100628.34;;;16.13;70.86
12360;BME280;6244;51.460;7.090;2023-05-07T02:03:15;100628.69;;;16.08;71.01
12360;BME280;6244;51.460;7.090;2023-05-07T02:08:12;100628.75;;;15.96;71.28
12360;BME280;6244;51.460;7.090;2023-05-07T02:13:08;100632.69;;;15.90;71.57
12360;BME280;6244;51.460;7.090;2023-05-07T02:18:07;100619.00;;;15.96;71.50
12360;BME280;6244;51.460;7.090;2023-05-07T02:23:05;100625.88;;;15.99;71.48
12360;BME280;6244;51.460;7.090;2023-05-07T02:28:02;100623.69;;;15.93;71.32
12360;BME280;6244;51.460;7.090;2023-05-07T02:32:58;100623.69;;;15.93;71.64
12360;BME280;6244;51.460;7.090;2023-05-07T02:37:55;100619.47;;;15.90;71.63
12360;BME280;6244;51.460;7.090;2023-05-07T02:42:52;100619.19;;;15.82;71.79
12360;BME280;6244;51.460;7.090;2023-05-07T02:47:49;100622.28;;;15.76;71.98
12360;BME280;6244;51.460;7.090;2023-05-07T02:52:46;100622.59;;;15.71;71.91
12360;BME280;6244;51.460;7.090;2023-05-07T02:57:43;100617.91;;;15.64;71.98
12360;BME280;6244;51.460;7.090;2023-05-07T03:02:41;100612.81;;;15.61;72.08
12360;BME280;6244;51.460;7.090;2023-05-07T03:07:37;100610.03;;;15.62;72.02
12360;BME280;6244;51.460;7.090;2023-05-07T03:12:34;100618.84;;;15.63;71.84
12360;BME280;6244;51.460;7.090;2023-05-07T03:17:31;100622.63;;;15.58;72.26
12360;BME280;6244;51.460;7.090;2023-05-07T03:22:28;100622.34;;;15.63;72.55
12360;BME280;6244;51.460;7.090;2023-05-07T03:27:25;100628.56;;;15.62;72.63
12360;BME280;6244;51.460;7.090;2023-05-07T03:32:22;100632.91;;;15.63;72.85
12360;BME280;6244;51.460;7.090;2023-05-07T03:37:18;100631.19;;;15.62;72.80
12360;BME280;6244;51.460;7.090;2023-05-07T03:42:16;100620.19;;;15.55;72.87
12360;BME280;6244;51.460;7.090;2023-05-07T03:47:13;100622.44;;;15.49;72.83
12360;BME280;6244;51.460;7.090;2023-05-07T03:52:09;100620.03;;;15.46;73.00
12360;BME280;6244;51.460;7.090;2023-05-07T03:57:06;100620.47;;;15.40;73.14
12360;BME280;6244;51.460;7.090;2023-05-07T04:02:04;100615.50;;;15.35;73.32
12360;BME280;6244;51.460;7.090;2023-05-07T04:07:00;100626.06;;;15.35;73.30
12360;BME280;6244;51.460;7.090;2023-05-07T04:11:58;100624.59;;;15.31;73.32
12360;BME280;6244;51.460;7.090;2023-05-07T04:16:54;100637.38;;;15.37;73.42
12360;BME280;6244;51.460;7.090;2023-05-07T04:21:52;100633.88;;;15.37;73.46
12360;BME280;6244;51.460;7.090;2023-05-07T04:26:49;100637.28;;;15.39;73.70
12360;BME280;6244;51.460;7.090;2023-05-07T04:31:46;100641.63;;;15.40;73.66
12360;BME280;6244;51.460;7.090;2023-05-07T04:36:42;100644.03;;;15.43;73.94
12360;BME280;6244;51.460;7.090;2023-05-07T04:41:40;100632.00;;;15.39;74.16
12360;BME280;6244;51.460;7.090;2023-05-07T04:46:37;100642.34;;;15.42;74.56
12360;BME280;6244;51.460;7.090;2023-05-07T04:51:33;100644.44;;;15.49;74.62
12360;BME280;6244;51.460;7.090;2023-05-07T04:56:30;100652.38;;;15.62;74.46
12360;BME280;6244;51.460;7.090;2023-05-07T05:01:27;100651.22;;;15.66;74.42
12360;BME280;6244;51.460;7.090;2023-05-07T05:06:24;100661.56;;;15.56;74.73
12360;BME280;6244;51.460;7.090;2023-05-07T05:11:21;100659.44;;;15.62;74.67
12360;BME280;6244;51.460;7.090;2023-05-07T05:16:17;100665.50;;;15.64;74.75
12360;BME280;6244;51.460;7.090;2023-05-07T05:21:15;100660.50;;;15.72;74.89
12360;BME280;6244;51.460;7.090;2023-05-07T05:26:12;100658.69;;;15.72;74.90
12360;BME280;6244;51.460;7.090;2023-05-07T05:31:08;100667.88;;;15.79;74.55
12360;BME280;6244;51.460;7.090;2023-05-07T05:36:06;100663.19;;;15.83;74.66
12360;BME280;6244;51.460;7.090;2023-05-07T05:41:04;100668.25;;;15.86;74.97
12360;BME280;6244;51.460;7.090;2023-05-07T05:46:00;100667.03;;;15.79;74.85
12360;BME280;6244;51.460;7.090;2023-05-07T05:50:57;100666.97;;;15.68;75.07
12360;BME280;6244;51.460;7.090;2023-05-07T05:55:53;100676.13;;;15.88;74.96
12360;BME280;6244;51.460;7.090;2023-05-07T06:00:51;100675.44;;;15.97;74.67
12360;BME280;6244;51.460;7.090;2023-05-07T06:05:48;100670.78;;;16.00;74.72
12360;BME280;6244;51.460;7.090;2023-05-07T06:10:45;100679.63;;;16.23;74.49
12360;BME280;6244;51.460;7.090;2023-05-07T06:15:42;100683.34;;;16.44;74.07
12360;BME280;6244;51.460;7.090;2023-05-07T06:20:40;100688.91;;;16.53;73.38
12360;BME280;6244;51.460;7.090;2023-05-07T06:25:36;100686.75;;;16.58;73.15
12360;BME280;6244;51.460;7.090;2023-05-07T06:30:33;100698.72;;;16.63;72.33
12360;BME280;6244;51.460;7.090;2023-05-07T06:35:29;100703.56;;;16.69;72.22
12360;BME280;6244;51.460;7.090;2023-05-07T06:40:27;100704.19;;;16.84;72.33
12360;BME280;6244;51.460;7.090;2023-05-07T06:45:24;100702.78;;;17.02;71.46
12360;BME280;6244;51.460;7.090;2023-05-07T06:50:20;100696.13;;;16.86;70.60
12360;BME280;6244;51.460;7.090;2023-05-07T06:55:17;100699.72;;;16.85;70.83
12360;BME280;6244;51.460;7.090;2023-05-07T07:00:16;100705.19;;;16.94;70.75
12360;BME280;6244;51.460;7.090;2023-05-07T07:05:13;100694.00;;;17.13;70.70
12360;BME280;6244;51.460;7.090;2023-05-07T07:10:10;100695.06;;;17.11;70.14
12360;BME280;6244;51.460;7.090;2023-05-07T07:15:07;100696.28;;;17.07;69.92
12360;BME280;6244;51.460;7.090;2023-05-07T07:20:06;100696.19;;;17.19;69.80
12360;BME280;6244;51.460;7.090;2023-05-07T07:25:04;100695.47;;;17.28;68.57
12360;BME280;6244;51.460;7.090;2023-05-07T07:30:00;100705.81;;;17.20;67.94
12360;BME280;6244;51.460;7.090;2023-05-07T07:34:57;100704.38;;;17.16;69.35
12360;BME280;6244;51.460;7.090;2023-05-07T07:39:55;100701.25;;;17.33;68.87
12360;BME280;6244;51.460;7.090;2023-05-07T07:44:52;100698.09;;;17.73;68.71
12360;BME280;6244;51.460;7.090;2023-05-07T07:49:48;100702.06;;;17.90;67.19
12360;BME280;6244;51.460;7.090;2023-05-07T07:54:45;100708.63;;;17.75;67.69
12360;BME280;6244;51.460;7.090;2023-05-07T07:59:42;100715.59;;;17.65;67.83
12360;BME280;6244;51.460;7.090;2023-05-07T08:04:39;100719.81;;;17.67;67.92
12360;BME280;6244;51.460;7.090;2023-05-07T08:09:37;100720.66;;;17.79;67.81
12360;BME280;6244;51.460;7.090;2023-05-07T08:14:34;100729.72;;;17.87;66.74
12360;BME280;6244;51.460;7.090;2023-05-07T08:19:32;100726.78;;;18.02;66.64
12360;BME280;6244;51.460;7.090;2023-05-07T08:24:30;100722.44;;;18.33;66.83
12360;BME280;6244;51.460;7.090;2023-05-07T08:29:26;100724.13;;;19.89;61.65
12360;BME280;6244;51.460;7.090;2023-05-07T08:34:23;100723.31;;;20.95;59.19
12360;BME280;6244;51.460;7.090;2023-05-07T08:39:21;100718.09;;;22.05;54.98
12360;BME280;6244;51.460;7.090;2023-05-07T08:44:21;100717.47;;;22.21;54.40
12360;BME280;6244;51.460;7.090;2023-05-07T08:49:18;100721.97;;;22.38;52.81
12360;BME280;6244;51.460;7.090;2023-05-07T08:54:16;100721.19;;;21.83;54.59
12360;BME280;6244;51.460;7.090;2023-05-07T08:59:14;100726.75;;;21.25;56.29
12360;BME280;6244;51.460;7.090;2023-05-07T09:04:11;100720.06;;;21.85;53.97
12360;BME280;6244;51.460;7.090;2023-05-07T09:09:08;100714.94;;;22.19;54.72
12360;BME280;6244;51.460;7.090;2023-05-07T09:14:04;100714.75;;;23.52;51.12
12360;BME280;6244;51.460;7.090;2023-05-07T09:19:02;100718.72;;;24.24;49.76
12360;BME280;6244;51.460;7.090;2023-05-07T09:23:58;100708.81;;;25.23;45.70
12360;BME280;6244;51.460;7.090;2023-05-07T09:28:55;100710.66;;;24.08;47.90
12360;BME280;6244;51.460;7.090;2023-05-07T09:33:52;100709.38;;;24.61;46.38
12360;BME280;6244;51.460;7.090;2023-05-07T09:38:52;100715.34;;;25.84;45.45
12360;BME280;6244;51.460;7.090;2023-05-07T09:43:53;100716.44;;;25.58;44.28
12360;BME280;6244;51.460;7.090;2023-05-07T09:48:52;100713.16;;;24.26;47.56
12360;BME280;6244;51.460;7.090;2023-05-07T09:53:51;100713.19;;;23.41;50.25
12360;BME280;6244;51.460;7.090;2023-05-07T09:58:49;100716.72;;;23.42;49.51
12360;BME280;6244;51.460;7.090;2023-05-07T10:03:46;100716.38;;;23.11;50.05
12360;BME280;6244;51.460;7.090;2023-05-07T10:08:43;100717.81;;;22.79;50.48
12360;BME280;6244;51.460;7.090;2023-05-07T10:13:43;100713.25;;;22.72;51.84
12360;BME280;6244;51.460;7.090;2023-05-07T10:18:40;100715.28;;;22.96;51.78
12360;BME280;6244;51.460;7.090;2023-05-07T10:23:37;100712.63;;;22.96;50.95
12360;BME280;6244;51.460;7.090;2023-05-07T10:28:39;100705.00;;;23.09;49.08
12360;BME280;6244;51.460;7.090;2023-05-07T10:33:39;100708.72;;;23.16;50.16
12360;BME280;6244;51.460;7.090;2023-05-07T10:38:36;100705.63;;;24.21;48.38
12360;BME280;6244;51.460;7.090;2023-05-07T10:43:40;100701.84;;;24.81;44.46
12360;BME280;6244;51.460;7.090;2023-05-07T10:49:12;100705.34;;;24.73;43.89
12360;BME280;6244;51.460;7.090;2023-05-07T10:54:19;100706.97;;;24.25;46.12
12360;BME280;6244;51.460;7.090;2023-05-07T10:59:39;100698.53;;;23.88;47.19
12360;BME280;6244;51.460;7.090;2023-05-07T11:04:40;100703.22;;;23.52;48.76
12360;BME280;6244;51.460;7.090;2023-05-07T11:10:02;100696.13;;;24.51;46.36
12360;BME280;6244;51.460;7.090;2023-05-07T11:14:59;100695.63;;;24.64;46.23
12360;BME280;6244;51.460;7.090;2023-05-07T11:19:57;100691.84;;;24.00;47.30
12360;BME280;6244;51.460;7.090;2023-05-07T11:24:54;100692.38;;;23.27;48.33
12360;BME280;6244;51.460;7.090;2023-05-07T11:29:51;100694.47;;;22.28;49.83
12360;BME280;6244;51.460;7.090;2023-05-07T11:34:51;100699.59;;;21.76;51.76
12360;BME280;6244;51.460;7.090;2023-05-07T11:39:49;100695.03;;;21.86;53.06
12360;BME280;6244;51.460;7.090;2023-05-07T11:44:49;100699.31;;;23.38;50.01
12360;BME280;6244;51.460;7.090;2023-05-07T11:49:47;100687.50;;;23.99;46.77
12360;BME280;6244;51.460;7.090;2023-05-07T11:54:50;100692.72;;;23.24;49.07
12360;BME280;6244;51.460;7.090;2023-05-07T11:59:46;100692.25;;;22.59;50.79
12360;BME280;6244;51.460;7.090;2023-05-07T12:04:44;100691.13;;;22.26;51.50
12360;BME280;6244;51.460;7.090;2023-05-07T12:09:41;100702.72;;;22.17;53.44
12360;BME280;6244;51.460;7.090;2023-05-07T12:14:39;100703.81;;;22.24;52.01
12360;BME280;6244;51.460;7.090;2023-05-07T12:19:36;100707.16;;;22.08;53.70
12360;BME280;6244;51.460;7.090;2023-05-07T12:24:43;100704.19;;;22.02;55.10
12360;BME280;6244;51.460;7.090;2023-05-07T12:29:44;100703.19;;;22.12;53.58
12360;BME280;6244;51.460;7.090;2023-05-07T12:34:41;100713.53;;;21.97;53.17
12360;BME280;6244;51.460;7.090;2023-05-07T12:39:38;100704.13;;;21.66;53.29
12360;BME280;6244;51.460;7.090;2023-05-07T12:44:34;100705.44;;;21.62;53.52
12360;BME280;6244;51.460;7.090;2023-05-07T12:49:34;100720.13;;;21.38;55.00
12360;BME280;6244;51.460;7.090;2023-05-07T12:54:37;100719.09;;;21.02;54.98
12360;BME280;6244;51.460;7.090;2023-05-07T12:59:35;100723.22;;;20.87;56.26
12360;BME280;6244;51.460;7.090;2023-05-07T13:04:34;100731.34;;;20.66;55.88
12360;BME280;6244;51.460;7.090;2023-05-07T13:09:31;100725.34;;;20.55;56.98
12360;BME280;6244;51.460;7.090;2023-05-07T13:14:27;100730.09;;;20.51;56.66
12360;BME280;6244;51.460;7.090;2023-05-07T13:19:24;100734.53;;;20.31;57.39
12360;BME280;6244;51.460;7.090;2023-05-07T13:24:22;100740.25;;;20.07;57.23
12360;BME280;6244;51.460;7.090;2023-05-07T13:29:18;100741.66;;;20.02;56.97
12360;BME280;6244;51.460;7.090;2023-05-07T13:34:16;100749.38;;;20.05;57.59
12360;BME280;6244;51.460;7.090;2023-05-07T13:39:13;100751.78;;;20.17;58.26
12360;BME280;6244;51.460;7.090;2023-05-07T13:44:10;100751.81;;;20.27;58.62
12360;BME280;6244;51.460;7.090;2023-05-07T13:49:07;100750.81;;;20.28;58.59
12360;BME280;6244;51.460;7.090;2023-05-07T13:54:06;100758.66;;;20.20;57.86
12360;BME280;6244;51.460;7.090;2023-05-07T13:59:02;100753.03;;;20.13;57.18
12360;BME280;6244;51.460;7.090;2023-05-07T14:04:00;100757.94;;;19.99;57.80
12360;BME280;6244;51.460;7.090;2023-05-07T14:08:57;100756.09;;;19.99;60.64
12360;BME280;6244;51.460;7.090;2023-05-07T14:13:53;100753.41;;;19.89;64.20
12360;BME280;6244;51.460;7.090;2023-05-07T14:18:51;100758.41;;;19.73;65.82
12360;BME280;6244;51.460;7.090;2023-05-07T14:23:49;100762.16;;;19.40;66.44
12360;BME280;6244;51.460;7.090;2023-05-07T14:28:46;100766.91;;;19.16;66.40
12360;BME280;6244;51.460;7.090;2023-05-07T14:33:42;100772.22;;;19.16;66.78
12360;BME280;6244;51.460;7.090;2023-05-07T14:38:39;100772.94;;;19.18;67.24
12360;BME280;6244;51.460;7.090;2023-05-07T14:43:37;100763.47;;;19.25;67.41
12360;BME280;6244;51.460;7.090;2023-05-07T14:48:33;100771.69;;;19.22;68.15
12360;BME280;6244;51.460;7.090;2023-05-07T14:53:30;100772.00;;;18.66;74.44
12360;BME280;6244;51.460;7.090;2023-05-07T14:58:27;100778.41;;;18.09;77.24
12360;BME280;6244;51.460;7.090;2023-05-07T15:03:24;100780.16;;;17.99;78.19
12360;BME280;6244;51.460;7.090;2023-05-07T15:08:21;100785.78;;;18.05;78.05
12360;BME280;6244;51.460;7.090;2023-05-07T15:13:18;100790.84;;;18.19;78.57
12360;BME280;6244;51.460;7.090;2023-05-07T15:18:15;100793.59;;;18.29;77.52
12360;BME280;6244;51.460;7.090;2023-05-07T15:23:12;100795.25;;;18.41;77.03
12360;BME280;6244;51.460;7.090;2023-05-07T15:28:09;100795.63;;;18.48;75.97
12360;BME280;6244;51.460;7.090;2023-05-07T15:33:06;100789.91;;;18.53;76.11
12360;BME280;6244;51.460;7.090;2023-05-07T15:38:02;100793.03;;;18.58;75.01
12360;BME280;6244;51.460;7.090;2023-05-07T15:43:00;100786.19;;;18.44;74.34
12360;BME280;6244;51.460;7.090;2023-05-07T15:47:57;100798.88;;;18.40;75.08
12360;BME280;6244;51.460;7.090;2023-05-07T15:52:57;100801.06;;;18.78;73.55
12360;BME280;6244;51.460;7.090;2023-05-07T15:57:54;100801.22;;;18.77;71.55
12360;BME280;6244;51.460;7.090;2023-05-07T16:02:52;100797.97;;;18.73;72.22
12360;BME280;6244;51.460;7.090;2023-05-07T16:07:49;100803.16;;;18.96;72.28
12360;BME280;6244;51.460;7.090;2023-05-07T16:12:45;100795.84;;;19.09;70.22
12360;BME280;6244;51.460;7.090;2023-05-07T16:17:45;100792.25;;;19.41;69.32
12360;BME280;6244;51.460;7.090;2023-05-07T16:22:43;100783.44;;;19.61;68.92
12360;BME280;6244;51.460;7.090;2023-05-07T16:27:41;100782.06;;;19.67;68.81
12360;BME280;6244;51.460;7.090;2023-05-07T16:32:38;100784.06;;;19.74;68.29
12360;BME280;6244;51.460;7.090;2023-05-07T16:37:34;100785.88;;;19.74;67.50
12360;BME280;6244;51.460;7.090;2023-05-07T16:42:33;100794.72;;;19.53;66.83
12360;BME280;6244;51.460;7.090;2023-05-07T16:47:29;100794.41;;;19.26;66.71
12360;BME280;6244;51.460;7.090;2023-05-07T16:52:28;100796.09;;;19.27;67.35
12360;BME280;6244;51.460;7.090;2023-05-07T16:57:25;100796.09;;;19.06;67.67
12360;BME280;6244;51.460;7.090;2023-05-07T17:02:23;100798.44;;;18.99;68.80
12360;BME280;6244;51.460;7.090;2023-05-07T17:07:20;100788.63;;;18.79;68.73
12360;BME280;6244;51.460;7.090;2023-05-07T17:12:16;100799.97;;;18.81;69.00
12360;BME280;6244;51.460;7.090;2023-05-07T17:17:16;100798.19;;;18.59;69.34
12360;BME280;6244;51.460;7.090;2023-05-07T17:22:14;100814.69;;;18.42;71.55
12360;BME280;6244;51.460;7.090;2023-05-07T17:27:10;100813.97;;;18.51;71.56
12360;BME280;6244;51.460;7.090;2023-05-07T17:32:07;100827.97;;;18.64;72.03
12360;BME280;6244;51.460;7.090;2023-05-07T17:37:03;100837.09;;;18.60;72.33
12360;BME280;6244;51.460;7.090;2023-05-07T17:42:01;100842.19;;;18.74;71.42
12360;BME280;6244;51.460;7.090;2023-05-07T17:46:58;100851.25;;;19.04;72.03
12360;BME280;6244;51.460;7.090;2023-05-07T17:51:54;100863.09;;;18.57;72.86
12360;BME280;6244;51.460;7.090;2023-05-07T17:56:51;100857.53;;;18.60;73.97
12360;BME280;6244;51.460;7.090;2023-05-07T18:01:49;100855.13;;;18.57;73.00
12360;BME280;6244;51.460;7.090;2023-05-07T18:06:46;100861.94;;;18.27;74.75
12360;BME280;6244;51.460;7.090;2023-05-07T18:11:43;100865.91;;;18.33;74.96
12360;BME280;6244;51.460;7.090;2023-05-07T18:16:39;100878.72;;;18.16;74.83
12360;BME280;6244;51.460;7.090;2023-05-07T18:21:37;100880.78;;;17.90;74.99
12360;BME280;6244;51.460;7.090;2023-05-07T18:26:34;100891.63;;;17.76;75.12
12360;BME280;6244;51.460;7.090;2023-05-07T18:31:33;100891.00;;;17.73;75.15
12360;BME280;6244;51.460;7.090;2023-05-07T18:36:30;100900.91;;;17.71;75.52
12360;BME280;6244;51.460;7.090;2023-05-07T18:41:28;100908.28;;;17.78;76.24
12360;BME280;6244;51.460;7.090;2023-05-07T18:46:25;100921.72;;;17.99;76.20
12360;BME280;6244;51.460;7.090;2023-05-07T18:51:23;100912.53;;;17.92;76.03
12360;BME280;6244;51.460;7.090;2023-05-07T18:56:21;100920.97;;;17.86;76.24
12360;BME280;6244;51.460;7.090;2023-05-07T19:01:19;100917.59;;;17.95;76.22
12360;BME280;6244;51.460;7.090;2023-05-07T19:06:16;100924.34;;;18.10;75.78
12360;BME280;6244;51.460;7.090;2023-05-07T19:11:13;100920.97;;;18.31;75.22
12360;BME280;6244;51.460;7.090;2023-05-07T19:16:09;100926.16;;;18.43;74.44
12360;BME280;6244;51.460;7.090;2023-05-07T19:21:09;100932.69;;;18.51;73.89
12360;BME280;6244;51.460;7.090;2023-05-07T19:26:06;100931.22;;;18.46;72.93
12360;BME280;6244;51.460;7.090;2023-05-07T19:31:03;100936.19;;;18.40;72.28
12360;BME280;6244;51.460;7.090;2023-05-07T19:35:59;100942.84;;;18.34;71.03
12360;BME280;6244;51.460;7.090;2023-05-07T19:40:58;100954.56;;;18.32;70.13
12360;BME280;6244;51.460;7.090;2023-05-07T19:45:54;100957.06;;;18.22;69.72
12360;BME280;6244;51.460;7.090;2023-05-07T19:50:51;100957.81;;;18.24;69.13
12360;BME280;6244;51.460;7.090;2023-05-07T19:55:48;100960.56;;;18.23;69.03
12360;BME280;6244;51.460;7.090;2023-05-07T20:00:46;100967.63;;;18.24;68.88
12360;BME280;6244;51.460;7.090;2023-05-07T20:05:42;100971.56;;;18.18;69.36
12360;BME280;6244;51.460;7.090;2023-05-07T20:10:40;100969.88;;;18.17;69.74
12360;BME280;6244;51.460;7.090;2023-05-07T20:15:37;100966.38;;;18.05;69.71
12360;BME280;6244;51.460;7.090;2023-05-07T20:20:36;100971.66;;;17.94;70.37
12360;BME280;6244;51.460;7.090;2023-05-07T20:25:33;100975.63;;;17.77;71.12
12360;BME280;6244;51.460;7.090;2023-05-07T20:30:29;100985.88;;;17.82;70.91
12360;BME280;6244;51.460;7.090;2023-05-07T20:35:28;100996.38;;;17.83;70.98
12360;BME280;6244;51.460;7.090;2023-05-07T20:40:27;100996.03;;;17.88;70.60
12360;BME280;6244;51.460;7.090;2023-05-07T20:45:26;100999.75;;;17.85;70.91
12360;BME280;6244;51.460;7.090;2023-05-07T20:50:22;101002.88;;;17.79;71.22
12360;BME280;6244;51.460;7.090;2023-05-07T20:55:29;100988.94;;;17.65;72.21
12360;BME280;6244;51.460;7.090;2023-05-07T21:00:27;101006.44;;;17.67;72.52
12360;BME280;6244;51.460;7.090;2023-05-07T21:05:24;101018.38;;;17.61;72.78
12360;BME280;6244;51.460;7.090;2023-05-07T21:10:21;101023.88;;;17.58;73.35
12360;BME280;6244;51.460;7.090;2023-05-07T21:15:19;101019.66;;;17.56;73.53
12360;BME280;6244;51.460;7.090;2023-05-07T21:20:16;101027.50;;;17.57;73.76
12360;BME280;6244;51.460;7.090;2023-05-07T21:25:12;101036.78;;;17.52;74.17
12360;BME280;6244;51.460;7.090;2023-05-07T21:30:10;101033.47;;;17.48;74.30
12360;BME280;6244;51.460;7.090;2023-05-07T21:35:08;101038.41;;;17.42;74.52
12360;BME280;6244;51.460;7.090;2023-05-07T21:40:06;101031.00;;;17.34;74.75
12360;BME280;6244;51.460;7.090;2023-05-07T21:45:04;101030.63;;;17.27;74.61
12360;BME280;6244;51.460;7.090;2023-05-07T21:50:01;101022.34;;;17.19;74.39
12360;BME280;6244;51.460;7.090;2023-05-07T21:55:00;101023.03;;;17.10;73.95
12360;BME280;6244;51.460;7.090;2023-05-07T21:59:57;101024.94;;;17.08;74.04
12360;BME280;6244;51.460;7.090;2023-05-07T22:04:55;101015.28;;;17.07;73.70
12360;BME280;6244;51.460;7.090;2023-05-07T22:09:55;101013.38;;;17.09;73.64
12360;BME280;6244;51.460;7.090;2023-05-07T22:14:53;101020.38;;;17.10;73.50
12360;BME280;6244;51.460;7.090;2023-05-07T22:19:49;101020.94;;;17.02;73.15
12360;BME280;6244;51.460;7.090;2023-05-07T22:24:47;101033.34;;;17.02;73.21
12360;BME280;6244;51.460;7.090;2023-05-07T22:29:43;101029.50;;;17.06;72.76
12360;BME280;6244;51.460;7.090;2023-05-07T22:34:41;101037.34;;;17.08;72.24
12360;BME280;6244;51.460;7.090;2023-05-07T22:39:38;101041.91;;;17.06;72.43
12360;BME280;6244;51.460;7.090;2023-05-07T22:44:36;101045.97;;;16.98;72.65
12360;BME280;6244;51.460;7.090;2023-05-07T22:49:33;101041.19;;;17.03;72.55
12360;BME280;6244;51.460;7.090;2023-05-07T22:54:31;101040.63;;;17.11;71.75
12360;BME280;6244;51.460;7.090;2023-05-07T22:59:28;101037.88;;;17.13;71.06
12360;BME280;6244;51.460;7.090;2023-05-07T23:04:25;101037.13;;;17.11;70.83
12360;BME280;6244;51.460;7.090;2023-05-07T23:09:21;101036.19;;;16.99;71.01
12360;BME280;6244;51.460;7.090;2023-05-07T23:14:19;101037.19;;;16.85;71.57
12360;BME280;6244;51.460;7.090;2023-05-07T23:19:16;101039.66;;;16.76;71.75
12360;BME280;6244;51.460;7.090;2023-05-07T23:24:12;101048.03;;;16.69;72.32
12360;BME280;6244;51.460;7.090;2023-05-07T23:29:09;101044.72;;;16.66;72.60
12360;BME280;6244;51.460;7.090;2023-05-07T23:34:07;101048.16;;;16.68;72.42
12360;BME280;6244;51.460;7.090;2023-05-07T23:39:03;101048.22;;;16.66;72.42
12360;BME280;6244;51.460;7.090;2023-05-07T23:44:00;101043.16;;;16.63;72.41
12360;BME280;6244;51.460;7.090;2023-05-07T23:48:57;101039.66;;;16.63;72.46
12360;BME280;6244;51.460;7.090;2023-05-07T23:53:54;101038.25;;;16.57;72.60
12360;BME280;6244;51.460;7.090;2023-05-07T23:58:51;101045.25;;;16.58;72.45
